createdAt,value
2018-02-05T00:01:22.768Z,101690
2018-02-05T00:03:51.701Z,101692
2018-02-05T00:06:20.949Z,101702
2018-02-05T00:08:49.194Z,101699
2018-02-05T00:11:17.393Z,101703
2018-02-05T00:13:45.598Z,101701
2018-02-05T00:16:14.000Z,101536
2018-02-05T00:18:42.194Z,101717
2018-02-05T00:21:10.356Z,101713
2018-02-05T00:23:38.512Z,101714
2018-02-05T00:26:07.393Z,101717
2018-02-05T00:28:35.520Z,101726
2018-02-05T00:31:03.681Z,101717
2018-02-05T00:33:31.839Z,101724
2018-02-05T00:35:59.956Z,101728
2018-02-05T00:38:28.060Z,101723
2018-02-05T00:40:56.192Z,101724
2018-02-05T00:43:24.293Z,101721
2018-02-05T00:45:52.422Z,101728
2018-02-05T00:48:20.520Z,101724
2018-02-05T00:50:48.635Z,101731
2018-02-05T00:53:16.738Z,101731
2018-02-05T00:55:44.854Z,101732
2018-02-05T00:58:16.406Z,101724
2018-02-05T01:00:44.495Z,101739
2018-02-05T01:03:13.387Z,101731
2018-02-05T01:05:41.511Z,101730
2018-02-05T01:08:09.616Z,101732
2018-02-05T01:10:37.738Z,101733
2018-02-05T01:13:05.834Z,101735
2018-02-05T01:15:33.952Z,101737
2018-02-05T01:18:02.090Z,101736
2018-02-05T01:20:30.213Z,101742
2018-02-05T01:22:59.113Z,101736
2018-02-05T01:25:27.235Z,101731
2018-02-05T01:27:55.433Z,101738
2018-02-05T01:30:23.557Z,101722
2018-02-05T01:32:51.670Z,101725
2018-02-05T01:35:19.801Z,101734
2018-02-05T01:37:47.892Z,101736
2018-02-05T01:40:16.020Z,101724
2018-02-05T01:42:44.111Z,101734
2018-02-05T01:45:12.231Z,101730
2018-02-05T01:47:40.324Z,101739
2018-02-05T01:50:08.450Z,101722
2018-02-05T01:52:36.575Z,101726
2018-02-05T01:55:04.724Z,101711
2018-02-05T01:57:32.862Z,101721
2018-02-05T02:00:01.022Z,101707
2018-02-05T02:02:30.084Z,101707
2018-02-05T02:04:58.256Z,101708
2018-02-05T02:07:26.378Z,101710
2018-02-05T02:09:54.495Z,101697
2018-02-05T02:12:23.377Z,101709
2018-02-05T02:14:51.480Z,101713
2018-02-05T02:17:19.591Z,101700
2018-02-05T02:19:47.695Z,101711
2018-02-05T02:22:15.828Z,101703
2018-02-05T02:24:43.934Z,101699
2018-02-05T02:27:12.049Z,101703
2018-02-05T02:29:40.163Z,101707
2018-02-05T02:32:08.304Z,101703
2018-02-05T02:34:36.441Z,101708
2018-02-05T02:37:04.568Z,101704
2018-02-05T02:39:32.696Z,101691
2018-02-05T02:42:01.560Z,101695
2018-02-05T02:44:29.689Z,101691
2018-02-05T02:46:57.821Z,101696
2018-02-05T02:49:25.985Z,101702
2018-02-05T02:51:54.089Z,101704
2018-02-05T02:54:22.956Z,101706
2018-02-05T02:56:51.127Z,101695
2018-02-05T02:59:19.225Z,101706
2018-02-05T03:01:47.349Z,101706
2018-02-05T03:04:16.384Z,101708
2018-02-05T03:06:44.514Z,101716
2018-02-05T03:09:12.621Z,101722
2018-02-05T03:11:40.721Z,101720
2018-02-05T03:14:08.844Z,101720
2018-02-05T03:16:36.955Z,101726
2018-02-05T03:19:05.137Z,101719
2018-02-05T03:21:33.250Z,101735
2018-02-05T03:24:01.375Z,101723
2018-02-05T03:26:29.559Z,101732
2018-02-05T03:28:57.711Z,101733
2018-02-05T03:31:26.665Z,101726
2018-02-05T03:33:54.795Z,101734
2018-02-05T03:36:22.928Z,101608
2018-02-05T03:38:51.101Z,101740
2018-02-05T03:41:19.270Z,101738
2018-02-05T03:43:47.403Z,101738
2018-02-05T03:46:15.542Z,101737
2018-02-05T03:48:44.452Z,101744
2018-02-05T03:51:12.579Z,101748
2018-02-05T03:53:40.733Z,101743
2018-02-05T03:56:09.628Z,101741
2018-02-05T03:58:37.833Z,101759
2018-02-05T04:01:06.140Z,101767
2018-02-05T04:03:34.633Z,101770
2018-02-05T04:06:25.002Z,101779
2018-02-05T04:08:54.464Z,101771
2018-02-05T04:11:22.791Z,101777
2018-02-05T04:14:03.176Z,101782
2018-02-05T04:16:31.356Z,101781
2018-02-05T04:18:59.561Z,101780
2018-02-05T04:21:32.274Z,101779
2018-02-05T04:24:06.685Z,101781
2018-02-05T04:26:35.619Z,101782
2018-02-05T04:29:04.134Z,101768
2018-02-05T04:31:32.629Z,101781
2018-02-05T04:34:01.017Z,101796
2018-02-05T04:36:29.160Z,101775
2018-02-05T04:38:58.062Z,101773
2018-02-05T04:41:26.990Z,101787
2018-02-05T04:43:55.937Z,101783
2018-02-05T04:46:24.414Z,101779
2018-02-05T04:48:53.209Z,101784
2018-02-05T04:51:22.517Z,101794
2018-02-05T04:53:51.404Z,101782
2018-02-05T04:56:19.741Z,101785
2018-02-05T04:58:47.955Z,101789
2018-02-05T05:01:16.115Z,101801
2018-02-05T05:03:57.804Z,101789
2018-02-05T05:06:25.966Z,101799
2018-02-05T05:08:54.119Z,101790
2018-02-05T05:11:23.338Z,101801
2018-02-05T05:13:51.444Z,101799
2018-02-05T05:16:19.550Z,101789
2018-02-05T05:18:48.465Z,101783
2018-02-05T05:21:20.624Z,101785
2018-02-05T05:23:49.495Z,101787
2018-02-05T05:26:17.620Z,101786
2018-02-05T05:28:45.719Z,101794
2018-02-05T05:31:13.868Z,101792
2018-02-05T05:33:41.995Z,101796
2018-02-05T05:36:10.890Z,101787
2018-02-05T05:38:39.751Z,101786
2018-02-05T05:41:07.883Z,101793
2018-02-05T05:43:36.001Z,101781
2018-02-05T05:46:04.100Z,101777
2018-02-05T05:48:32.249Z,101787
2018-02-05T05:51:00.376Z,101783
2018-02-05T05:53:28.916Z,101796
2018-02-05T05:55:57.715Z,101801
2018-02-05T05:58:25.817Z,101794
2018-02-05T06:00:53.945Z,101798
2018-02-05T06:03:22.065Z,101802
2018-02-05T06:05:50.200Z,101800
2018-02-05T06:08:19.114Z,101801
2018-02-05T06:10:47.233Z,101809
2018-02-05T06:13:15.349Z,101802
2018-02-05T06:15:43.475Z,101815
2018-02-05T06:18:11.569Z,101811
2018-02-05T06:20:39.660Z,101810
2018-02-05T06:23:08.551Z,101820
2018-02-05T06:25:37.421Z,101810
2018-02-05T06:28:08.472Z,101826
2018-02-05T06:30:36.572Z,101823
2018-02-05T06:33:04.679Z,101818
2018-02-05T06:35:32.787Z,101820
2018-02-05T06:38:00.898Z,101817
2018-02-05T06:40:29.016Z,101823
2018-02-05T06:42:57.122Z,101820
2018-02-05T06:45:25.235Z,101823
2018-02-05T06:47:53.334Z,101823
2018-02-05T06:50:39.195Z,101827
2018-02-05T06:56:24.206Z,101833
2018-02-05T06:58:52.321Z,101828
2018-02-05T07:01:20.448Z,101833
2018-02-05T07:03:49.467Z,101837
2018-02-05T07:06:17.599Z,101838
2018-02-05T07:08:45.688Z,101824
2018-02-05T07:11:13.796Z,101852
2018-02-05T07:13:42.652Z,101846
2018-02-05T07:16:10.768Z,101844
2018-02-05T07:18:38.875Z,101854
2018-02-05T07:21:06.987Z,101842
2018-02-05T07:23:35.222Z,101857
2018-02-05T07:26:03.377Z,101850
2018-02-05T07:28:31.689Z,101840
2018-02-05T07:30:59.799Z,101848
2018-02-05T07:33:28.684Z,101843
2018-02-05T07:35:56.810Z,101851
2018-02-05T07:38:24.919Z,101846
2018-02-05T07:40:53.016Z,101851
2018-02-05T07:43:21.888Z,101855
2018-02-05T07:45:50.005Z,101859
2018-02-05T07:48:18.111Z,101851
2018-02-05T07:50:46.493Z,101856
2018-02-05T07:53:14.757Z,101851
2018-02-05T07:55:42.880Z,101858
2018-02-05T07:58:11.744Z,101859
2018-02-05T08:00:39.829Z,101864
2018-02-05T08:03:07.948Z,101863
2018-02-05T08:05:36.069Z,101865
2018-02-05T08:08:04.353Z,101870
2018-02-05T08:10:32.451Z,101869
2018-02-05T08:13:00.564Z,101875
2018-02-05T08:15:28.685Z,101872
2018-02-05T08:17:58.075Z,101873
2018-02-05T08:20:31.726Z,101870
2018-02-05T08:22:59.823Z,101865
2018-02-05T08:25:27.912Z,101865
2018-02-05T08:27:56.040Z,101869
2018-02-05T08:30:24.484Z,101861
2018-02-05T08:32:53.336Z,101860
2018-02-05T08:35:21.457Z,101862
2018-02-05T08:37:50.310Z,101855
2018-02-05T08:40:19.194Z,101850
2018-02-05T08:42:47.294Z,101855
2018-02-05T08:45:15.423Z,101859
2018-02-05T08:47:43.547Z,101856
2018-02-05T08:50:12.927Z,101855
2018-02-05T08:52:41.008Z,101856
2018-02-05T08:55:09.094Z,101851
2018-02-05T08:57:37.967Z,101853
2018-02-05T09:00:06.078Z,101844
2018-02-05T09:02:34.194Z,101852
2018-02-05T09:05:02.281Z,101858
2018-02-05T09:07:30.395Z,101860
2018-02-05T09:09:58.504Z,101842
2018-02-05T09:12:26.604Z,101841
2018-02-05T09:14:54.701Z,101840
2018-02-05T09:17:22.823Z,101847
2018-02-05T09:19:50.933Z,101836
2018-02-05T09:22:19.820Z,101843
2018-02-05T09:24:48.832Z,101838
2018-02-05T09:30:18.859Z,101834
2018-02-05T09:32:47.703Z,101837
2018-02-05T09:35:16.694Z,101832
2018-02-05T09:37:44.801Z,101834
2018-02-05T09:40:12.901Z,101832
2018-02-05T09:42:42.660Z,101835
2018-02-05T09:45:10.763Z,101838
2018-02-05T09:47:38.891Z,101835
2018-02-05T09:50:06.999Z,101820
2018-02-05T09:52:35.098Z,101826
2018-02-05T09:55:03.203Z,101834
2018-02-05T09:57:31.319Z,101833
2018-02-05T09:59:59.390Z,101828
2018-02-05T10:02:27.485Z,101833
2018-02-05T10:04:55.589Z,101834
2018-02-05T10:07:23.683Z,101823
2018-02-05T10:09:51.771Z,101821
2018-02-05T10:12:19.866Z,101826
2018-02-05T10:14:47.970Z,101823
2018-02-05T10:17:16.056Z,101825
2018-02-05T10:19:44.163Z,101822
2018-02-05T10:22:12.251Z,101817
2018-02-05T10:24:41.127Z,101817
2018-02-05T10:27:09.210Z,101814
2018-02-05T10:29:37.331Z,101811
2018-02-05T10:32:05.414Z,101809
2018-02-05T10:34:33.487Z,101811
2018-02-05T10:37:01.586Z,101810
2018-02-05T10:39:29.664Z,101803
2018-02-05T10:41:57.769Z,101803
2018-02-05T10:44:25.867Z,101801
2018-02-05T10:46:53.964Z,101801
2018-02-05T10:49:23.076Z,101794
2018-02-05T10:51:51.158Z,101790
2018-02-05T10:54:21.056Z,101789
2018-02-05T10:56:49.170Z,101784
2018-02-05T10:59:17.273Z,101787
2018-02-05T11:01:45.361Z,101779
2018-02-05T11:04:13.455Z,101780
2018-02-05T11:06:41.527Z,101775
2018-02-05T11:09:09.631Z,101753
2018-02-05T11:11:37.725Z,101775
2018-02-05T11:14:05.816Z,101774
2018-02-05T11:16:34.891Z,101775
2018-02-05T11:19:02.984Z,101772
2018-02-05T11:21:31.080Z,101767
2018-02-05T11:23:59.183Z,101768
2018-02-05T11:26:27.264Z,101771
2018-02-05T11:28:55.384Z,101768
2018-02-05T11:31:23.484Z,101769
2018-02-05T11:33:52.378Z,101763
2018-02-05T11:36:22.504Z,101756
2018-02-05T11:38:51.378Z,101767
2018-02-05T11:41:19.477Z,101745
2018-02-05T11:43:47.553Z,101747
2018-02-05T11:46:15.658Z,101755
2018-02-05T11:48:43.764Z,101754
2018-02-05T11:51:11.844Z,101756
2018-02-05T11:54:00.546Z,101755
2018-02-05T11:56:28.612Z,101753
2018-02-05T12:01:46.294Z,101748
2018-02-05T12:04:14.426Z,101748
2018-02-05T12:06:42.479Z,101747
2018-02-05T12:09:16.290Z,101738
2018-02-05T12:11:44.420Z,101726
2018-02-05T12:14:12.526Z,101738
2018-02-05T12:16:40.661Z,101729
2018-02-05T12:19:08.777Z,101739
2018-02-05T12:21:37.622Z,101726
2018-02-05T12:24:05.696Z,101723
2018-02-05T12:26:33.809Z,101718
2018-02-05T12:29:01.910Z,101726
2018-02-05T12:31:30.016Z,101718
2018-02-05T12:33:58.172Z,101720
2018-02-05T12:36:27.651Z,101718
2018-02-05T12:39:14.025Z,101709
2018-02-05T12:41:48.854Z,101706
2018-02-05T12:44:19.765Z,101218
2018-02-05T12:46:54.345Z,101710
2018-02-05T12:49:25.352Z,101706
2018-02-05T12:51:57.440Z,101705
2018-02-05T12:54:29.350Z,101702
2018-02-05T12:57:03.719Z,101699
2018-02-05T12:59:34.639Z,101698
2018-02-05T13:02:05.426Z,101691
2018-02-05T13:04:39.098Z,101698
2018-02-05T13:07:09.533Z,101698
2018-02-05T13:09:42.573Z,101689
2018-02-05T13:12:13.617Z,101684
2018-02-05T13:14:44.180Z,101675
2018-02-05T13:17:19.494Z,101676
2018-02-05T13:19:54.385Z,101672
2018-02-05T13:22:57.770Z,101669
2018-02-05T13:25:33.763Z,101659
2018-02-05T13:28:05.188Z,101669
2018-02-05T13:30:44.776Z,101664
2018-02-05T13:33:20.717Z,101652
2018-02-05T13:36:00.502Z,101656
2018-02-05T13:42:19.131Z,101657
2018-02-05T13:54:57.329Z,101648
2018-02-05T14:22:20.524Z,101618
2018-02-05T14:36:26.683Z,101597
2018-02-05T15:08:15.890Z,101583
2018-02-05T15:10:55.669Z,101582
2018-02-05T15:13:40.776Z,101574
2018-02-05T15:16:13.334Z,101586
2018-02-05T15:18:51.160Z,101567
2018-02-05T15:21:21.826Z,101560
2018-02-05T15:23:59.777Z,101558
2018-02-05T15:26:44.838Z,101556
2018-02-05T15:29:20.852Z,101561
2018-02-05T15:35:13.834Z,101548
2018-02-05T15:38:02.510Z,101554
2018-02-05T15:40:49.071Z,101546
2018-02-05T15:46:48.071Z,101543
2018-02-05T15:52:35.219Z,101551
2018-02-05T15:55:17.067Z,101555
2018-02-05T16:12:19.873Z,101531
2018-02-05T16:15:00.816Z,101534
2018-02-05T16:17:58.947Z,101529
2018-02-05T16:20:44.531Z,101531
2018-02-05T16:31:03.695Z,101537
2018-02-05T16:39:37.555Z,101538
2018-02-05T16:48:11.881Z,101535
2018-02-05T17:02:48.565Z,101536
2018-02-05T17:08:20.585Z,101541
2018-02-05T17:11:02.948Z,101547
2018-02-05T17:13:42.551Z,101548
2018-02-05T17:16:23.470Z,101545
2018-02-05T17:19:08.584Z,101554
2018-02-05T17:21:49.610Z,101562
2018-02-05T17:24:20.240Z,101558
2018-02-05T17:29:42.623Z,101558
2018-02-05T17:32:18.232Z,101557
2018-02-05T17:35:03.718Z,101548
2018-02-05T17:37:43.903Z,101558
2018-02-05T17:40:17.696Z,101554
2018-02-05T17:42:54.085Z,101553
2018-02-05T17:45:30.247Z,101549
2018-02-05T17:51:21.862Z,101538
2018-02-05T17:59:39.354Z,101554
2018-02-05T18:02:19.530Z,101554
2018-02-05T18:13:33.767Z,101547
2018-02-05T18:16:15.143Z,101535
2018-02-05T18:24:23.707Z,101534
2018-02-05T18:29:45.589Z,101539
2018-02-05T18:35:05.838Z,101547
2018-02-05T18:43:18.099Z,101527
2018-02-05T18:48:38.097Z,101528
2018-02-05T18:51:12.341Z,101528
2018-02-05T18:53:49.170Z,101526
2018-02-05T19:02:45.168Z,101514
2018-02-05T19:05:55.671Z,101515
2018-02-05T19:08:31.413Z,101508
2018-02-05T19:11:24.081Z,101509
2018-02-05T19:14:15.184Z,101497
2018-02-05T19:17:08.496Z,101503
2018-02-05T19:20:07.569Z,101501
2018-02-05T19:23:01.833Z,101494
2018-02-05T19:49:34.667Z,101501
2018-02-05T20:01:45.769Z,101498
2018-02-05T20:07:45.040Z,101503
2018-02-05T20:13:07.486Z,101494
2018-02-05T20:15:44.394Z,101500
2018-02-05T20:18:38.732Z,101497
2018-02-05T20:35:38.409Z,101503
2018-02-05T20:38:06.653Z,101486
2018-02-05T20:40:34.913Z,101479
2018-02-05T20:43:03.030Z,101492
2018-02-05T20:45:33.053Z,101481
2018-02-05T20:48:08.606Z,101494
2018-02-05T20:50:41.575Z,101494
2018-02-05T20:59:09.807Z,101490
2018-02-05T21:01:44.866Z,101482
2018-02-05T21:04:24.409Z,101488
2018-02-05T21:10:16.615Z,101480
2018-02-05T21:12:54.658Z,101485
2018-02-05T21:18:23.756Z,101476
2018-02-05T21:20:51.908Z,101478
2018-02-05T21:23:20.012Z,101472
2018-02-05T21:25:48.097Z,101467
2018-02-05T21:28:16.241Z,101483
2018-02-05T21:30:44.331Z,101469
2018-02-05T21:33:13.195Z,101476
2018-02-05T21:35:41.319Z,101472
2018-02-05T21:38:09.439Z,101471
2018-02-05T21:40:38.898Z,101480
2018-02-05T21:43:06.992Z,101477
2018-02-05T21:45:35.117Z,101475
2018-02-05T21:48:03.245Z,101465
2018-02-05T21:50:32.305Z,101455
2018-02-05T21:53:00.457Z,101461
2018-02-05T21:55:30.222Z,101459
2018-02-05T21:58:07.150Z,101449
2018-02-05T22:00:35.333Z,101455
2018-02-05T22:03:05.153Z,101454
2018-02-05T22:05:33.305Z,101449
2018-02-05T22:08:02.201Z,101450
2018-02-05T22:10:31.068Z,101448
2018-02-05T22:12:59.246Z,101438
2018-02-05T22:15:27.348Z,101443
2018-02-05T22:17:55.462Z,101440
2018-02-05T22:20:23.564Z,101435
2018-02-05T22:22:51.669Z,101431
2018-02-05T22:25:19.783Z,101422
2018-02-05T22:27:47.879Z,101410
2018-02-05T22:30:15.980Z,101412
2018-02-05T22:32:44.836Z,101404
2018-02-05T22:35:12.940Z,101397
2018-02-05T22:37:41.029Z,101398
2018-02-05T22:40:09.124Z,101390
2018-02-05T22:42:37.243Z,101387
2018-02-05T22:45:05.343Z,101388
2018-02-05T22:47:34.210Z,101371
2018-02-05T22:50:03.066Z,101376
2018-02-05T22:52:31.180Z,101369
2018-02-05T22:55:00.036Z,101366
2018-02-05T22:57:28.147Z,101362
2018-02-05T22:59:57.007Z,101348
2018-02-05T23:02:27.788Z,101347
2018-02-05T23:04:55.930Z,101339
2018-02-05T23:07:24.057Z,101349
2018-02-05T23:09:59.727Z,101348
2018-02-05T23:12:27.860Z,101350
2018-02-05T23:14:57.633Z,101339
2018-02-05T23:17:25.782Z,101335
2018-02-05T23:19:55.078Z,101336
2018-02-05T23:22:23.184Z,101325
2018-02-05T23:24:51.334Z,101318
2018-02-05T23:27:19.789Z,101319
2018-02-05T23:29:48.385Z,101316
2018-02-05T23:32:17.274Z,101321
2018-02-05T23:37:43.568Z,101308
2018-02-05T23:40:11.721Z,101310
2018-02-05T23:45:34.445Z,101318
2018-02-05T23:48:05.457Z,101311
2018-02-05T23:50:34.462Z,101306
2018-02-05T23:53:06.744Z,101304
2018-02-05T23:55:35.717Z,101294
2018-02-05T23:58:03.882Z,101301
